sensor_id;sensor_type;location;lat;lon;timestamp;P1;durP1;ratioP1;P2;durP2;ratioP2
14890;SDS011;7537;48.014;11.590;2023-08-21T00:04:11;6.10;;;5.96;;
14890;SDS011;7537;48.014;11.590;2023-08-21T00:09:41;6.13;;;6.22;;
14890;SDS011;7537;48.014;11.590;2023-08-21T00:15:09;7.71;;;6.80;;
14890;SDS011;7537;48.014;11.590;2023-08-21T00:20:40;6.42;;;6.44;;
14890;SDS011;7537;48.014;11.590;2023-08-21T00:26:08;5.78;;;5.88;;
14890;SDS011;7537;48.014;11.590;2023-08-21T00:31:36;7.11;;;6.10;;
14890;SDS011;7537;48.014;11.590;2023-08-21T00:37:04;5.92;;;6.05;;
14890;SDS011;7537;48.014;11.590;2023-08-21T00:42:32;5.87;;;5.89;;
14890;SDS011;7537;48.014;11.590;2023-08-21T00:48:03;5.37;;;5.46;;
14890;SDS011;7537;48.014;11.590;2023-08-21T00:53:30;7.57;;;6.62;;
14890;SDS011;7537;48.014;11.590;2023-08-21T00:58:58;6.84;;;6.86;;
14890;SDS011;7537;48.014;11.590;2023-08-21T01:04:25;7.71;;;6.89;;
14890;SDS011;7537;48.014;11.590;2023-08-21T01:09:54;5.50;;;5.68;;
14890;SDS011;7537;48.014;11.590;2023-08-21T01:15:23;8.27;;;6.19;;
14890;SDS011;7537;48.014;11.590;2023-08-21T01:20:51;7.85;;;5.99;;
14890;SDS011;7537;48.014;11.590;2023-08-21T01:26:33;6.02;;;5.54;;
14890;SDS011;7537;48.014;11.590;2023-08-21T01:32:09;6.11;;;5.69;;
14890;SDS011;7537;48.014;11.590;2023-08-21T01:37:40;5.92;;;5.70;;
14890;SDS011;7537;48.014;11.590;2023-08-21T01:43:10;5.49;;;5.59;;
14890;SDS011;7537;48.014;11.590;2023-08-21T01:48:48;5.59;;;5.59;;
14890;SDS011;7537;48.014;11.590;2023-08-21T01:54:16;5.76;;;5.80;;
14890;SDS011;7537;48.014;11.590;2023-08-21T01:59:44;5.78;;;5.91;;
14890;SDS011;7537;48.014;11.590;2023-08-21T02:05:11;5.67;;;5.57;;
14890;SDS011;7537;48.014;11.590;2023-08-21T02:10:39;7.78;;;5.00;;
14890;SDS011;7537;48.014;11.590;2023-08-21T02:16:15;5.18;;;5.31;;
14890;SDS011;7537;48.014;11.590;2023-08-21T02:21:42;8.06;;;5.80;;
14890;SDS011;7537;48.014;11.590;2023-08-21T02:27:10;7.49;;;5.59;;
14890;SDS011;7537;48.014;11.590;2023-08-21T02:32:37;4.90;;;4.97;;
14890;SDS011;7537;48.014;11.590;2023-08-21T02:38:05;5.38;;;5.45;;
14890;SDS011;7537;48.014;11.590;2023-08-21T02:43:35;4.47;;;4.70;;
14890;SDS011;7537;48.014;11.590;2023-08-21T02:49:06;4.79;;;4.67;;
14890;SDS011;7537;48.014;11.590;2023-08-21T02:54:34;5.73;;;5.16;;
14890;SDS011;7537;48.014;11.590;2023-08-21T03:00:01;7.55;;;5.40;;
14890;SDS011;7537;48.014;11.590;2023-08-21T03:05:29;5.54;;;5.59;;
14890;SDS011;7537;48.014;11.590;2023-08-21T03:10:56;8.87;;;5.04;;
14890;SDS011;7537;48.014;11.590;2023-08-21T03:16:23;5.04;;;4.87;;
14890;SDS011;7537;48.014;11.590;2023-08-21T03:21:51;6.78;;;5.36;;
14890;SDS011;7537;48.014;11.590;2023-08-21T03:27:21;6.23;;;4.71;;
14890;SDS011;7537;48.014;11.590;2023-08-21T03:32:48;5.85;;;5.67;;
14890;SDS011;7537;48.014;11.590;2023-08-21T03:38:16;5.72;;;5.41;;
14890;SDS011;7537;48.014;11.590;2023-08-21T03:43:43;5.00;;;5.02;;
14890;SDS011;7537;48.014;11.590;2023-08-21T03:49:19;4.69;;;4.78;;
14890;SDS011;7537;48.014;11.590;2023-08-21T03:54:47;4.89;;;4.90;;
14890;SDS011;7537;48.014;11.590;2023-08-21T04:00:20;5.04;;;5.09;;
14890;SDS011;7537;48.014;11.590;2023-08-21T04:05:47;6.76;;;5.81;;
14890;SDS011;7537;48.014;11.590;2023-08-21T04:11:14;6.16;;;5.88;;
14890;SDS011;7537;48.014;11.590;2023-08-21T04:16:42;9.34;;;5.89;;
14890;SDS011;7537;48.014;11.590;2023-08-21T04:22:09;8.96;;;6.29;;
14890;SDS011;7537;48.014;11.590;2023-08-21T04:27:39;5.71;;;5.48;;
14890;SDS011;7537;48.014;11.590;2023-08-21T04:33:08;5.96;;;5.83;;
14890;SDS011;7537;48.014;11.590;2023-08-21T04:38:36;4.87;;;5.05;;
14890;SDS011;7537;48.014;11.590;2023-08-21T04:44:05;6.51;;;5.39;;
14890;SDS011;7537;48.014;11.590;2023-08-21T04:49:36;4.81;;;4.94;;
14890;SDS011;7537;48.014;11.590;2023-08-21T04:55:04;7.76;;;5.21;;
14890;SDS011;7537;48.014;11.590;2023-08-21T05:00:34;6.04;;;5.44;;
14890;SDS011;7537;48.014;11.590;2023-08-21T05:06:10;6.46;;;5.08;;
14890;SDS011;7537;48.014;11.590;2023-08-21T05:11:37;8.32;;;6.01;;
14890;SDS011;7537;48.014;11.590;2023-08-21T05:17:06;6.20;;;5.16;;
14890;SDS011;7537;48.014;11.590;2023-08-21T05:22:34;8.23;;;5.64;;
14890;SDS011;7537;48.014;11.590;2023-08-21T05:28:01;4.45;;;3.96;;
14890;SDS011;7537;48.014;11.590;2023-08-21T05:33:29;7.76;;;5.31;;
14890;SDS011;7537;48.014;11.590;2023-08-21T05:38:57;3.83;;;4.06;;
14890;SDS011;7537;48.014;11.590;2023-08-21T05:44:28;4.98;;;4.86;;
14890;SDS011;7537;48.014;11.590;2023-08-21T05:49:59;4.31;;;4.41;;
14890;SDS011;7537;48.014;11.590;2023-08-21T05:55:26;4.53;;;4.12;;
14890;SDS011;7537;48.014;11.590;2023-08-21T06:00:53;4.18;;;4.36;;
14890;SDS011;7537;48.014;11.590;2023-08-21T06:06:21;5.93;;;5.12;;
14890;SDS011;7537;48.014;11.590;2023-08-21T06:11:48;4.31;;;4.56;;
14890;SDS011;7537;48.014;11.590;2023-08-21T06:17:16;7.21;;;4.34;;
14890;SDS011;7537;48.014;11.590;2023-08-21T06:22:57;5.50;;;4.72;;
14890;SDS011;7537;48.014;11.590;2023-08-21T06:28:24;4.05;;;3.97;;
14890;SDS011;7537;48.014;11.590;2023-08-21T06:33:53;5.92;;;4.22;;
14890;SDS011;7537;48.014;11.590;2023-08-21T06:39:21;4.49;;;4.21;;
14890;SDS011;7537;48.014;11.590;2023-08-21T06:44:48;4.77;;;4.24;;
14890;SDS011;7537;48.014;11.590;2023-08-21T06:50:24;3.77;;;3.76;;
14890;SDS011;7537;48.014;11.590;2023-08-21T06:55:53;3.72;;;3.74;;
14890;SDS011;7537;48.014;11.590;2023-08-21T07:01:21;7.07;;;3.93;;
14890;SDS011;7537;48.014;11.590;2023-08-21T07:06:48;3.88;;;3.96;;
14890;SDS011;7537;48.014;11.590;2023-08-21T07:12:16;7.06;;;4.16;;
14890;SDS011;7537;48.014;11.590;2023-08-21T07:17:43;5.66;;;4.08;;
14890;SDS011;7537;48.014;11.590;2023-08-21T07:23:10;4.03;;;4.13;;
14890;SDS011;7537;48.014;11.590;2023-08-21T07:28:42;4.88;;;4.05;;
14890;SDS011;7537;48.014;11.590;2023-08-21T07:34:09;4.56;;;4.64;;
14890;SDS011;7537;48.014;11.590;2023-08-21T07:39:37;4.50;;;4.46;;
14890;SDS011;7537;48.014;11.590;2023-08-21T07:45:05;4.36;;;4.21;;
14890;SDS011;7537;48.014;11.590;2023-08-21T07:50:36;4.21;;;4.21;;
14890;SDS011;7537;48.014;11.590;2023-08-21T07:56:04;4.56;;;4.21;;
14890;SDS011;7537;48.014;11.590;2023-08-21T08:01:32;8.17;;;4.29;;
14890;SDS011;7537;48.014;11.590;2023-08-21T08:06:59;4.00;;;4.06;;
14890;SDS011;7537;48.014;11.590;2023-08-21T08:12:27;4.22;;;4.10;;
14890;SDS011;7537;48.014;11.590;2023-08-21T08:17:54;6.71;;;4.45;;
14890;SDS011;7537;48.014;11.590;2023-08-21T08:23:22;4.61;;;4.75;;
14890;SDS011;7537;48.014;11.590;2023-08-21T08:28:49;5.24;;;4.83;;
14890;SDS011;7537;48.014;11.590;2023-08-21T08:34:17;5.58;;;4.99;;
14890;SDS011;7537;48.014;11.590;2023-08-21T08:39:45;4.08;;;4.02;;
14890;SDS011;7537;48.014;11.590;2023-08-21T08:45:13;5.48;;;4.63;;
14890;SDS011;7537;48.014;11.590;2023-08-21T08:50:44;3.76;;;3.83;;
14890;SDS011;7537;48.014;11.590;2023-08-21T08:56:23;5.96;;;4.71;;
14890;SDS011;7537;48.014;11.590;2023-08-21T09:01:51;4.71;;;4.78;;
14890;SDS011;7537;48.014;11.590;2023-08-21T09:07:18;4.92;;;4.37;;
14890;SDS011;7537;48.014;11.590;2023-08-21T09:12:46;4.60;;;4.73;;
14890;SDS011;7537;48.014;11.590;2023-08-21T09:18:14;3.91;;;4.04;;
14890;SDS011;7537;48.014;11.590;2023-08-21T09:23:41;7.47;;;4.06;;
14890;SDS011;7537;48.014;11.590;2023-08-21T09:29:11;4.13;;;4.03;;
14890;SDS011;7537;48.014;11.590;2023-08-21T09:34:40;3.79;;;4.00;;
14890;SDS011;7537;48.014;11.590;2023-08-21T09:40:09;5.57;;;4.09;;
14890;SDS011;7537;48.014;11.590;2023-08-21T09:45:37;5.34;;;4.34;;
14890;SDS011;7537;48.014;11.590;2023-08-21T09:51:19;7.03;;;3.78;;
14890;SDS011;7537;48.014;11.590;2023-08-21T09:56:46;3.71;;;3.68;;
14890;SDS011;7537;48.014;11.590;2023-08-21T10:02:15;3.08;;;3.28;;
14890;SDS011;7537;48.014;11.590;2023-08-21T10:07:42;3.04;;;3.18;;
14890;SDS011;7537;48.014;11.590;2023-08-21T10:13:11;4.17;;;2.99;;
14890;SDS011;7537;48.014;11.590;2023-08-21T10:18:42;3.76;;;3.53;;
14890;SDS011;7537;48.014;11.590;2023-08-21T10:24:11;3.32;;;3.44;;
14890;SDS011;7537;48.014;11.590;2023-08-21T10:29:39;3.73;;;3.69;;
14890;SDS011;7537;48.014;11.590;2023-08-21T10:35:08;3.82;;;3.21;;
14890;SDS011;7537;48.014;11.590;2023-08-21T10:40:41;3.66;;;3.56;;
14890;SDS011;7537;48.014;11.590;2023-08-21T10:46:09;5.39;;;3.56;;
14890;SDS011;7537;48.014;11.590;2023-08-21T10:51:40;2.71;;;2.86;;
14890;SDS011;7537;48.014;11.590;2023-08-21T10:57:08;3.34;;;3.44;;
14890;SDS011;7537;48.014;11.590;2023-08-21T11:02:38;2.91;;;2.90;;
14890;SDS011;7537;48.014;11.590;2023-08-21T11:08:05;3.21;;;2.83;;
14890;SDS011;7537;48.014;11.590;2023-08-21T11:13:33;4.53;;;3.52;;
14890;SDS011;7537;48.014;11.590;2023-08-21T11:19:03;3.49;;;3.65;;
14890;SDS011;7537;48.014;11.590;2023-08-21T11:24:34;4.07;;;3.33;;
14890;SDS011;7537;48.014;11.590;2023-08-21T11:30:06;6.87;;;3.74;;
14890;SDS011;7537;48.014;11.590;2023-08-21T11:35:38;4.22;;;3.27;;
14890;SDS011;7537;48.014;11.590;2023-08-21T11:41:05;4.71;;;3.53;;
14890;SDS011;7537;48.014;11.590;2023-08-21T11:46:33;3.56;;;3.56;;
14890;SDS011;7537;48.014;11.590;2023-08-21T11:52:05;4.62;;;3.33;;
14890;SDS011;7537;48.014;11.590;2023-08-21T11:57:32;6.49;;;4.22;;
14890;SDS011;7537;48.014;11.590;2023-08-21T12:03:00;3.99;;;4.11;;
14890;SDS011;7537;48.014;11.590;2023-08-21T12:08:28;4.16;;;4.09;;
14890;SDS011;7537;48.014;11.590;2023-08-21T12:13:55;3.64;;;3.61;;
14890;SDS011;7537;48.014;11.590;2023-08-21T12:19:23;3.28;;;3.33;;
14890;SDS011;7537;48.014;11.590;2023-08-21T12:24:54;5.37;;;3.37;;
14890;SDS011;7537;48.014;11.590;2023-08-21T12:30:24;4.36;;;3.51;;
14890;SDS011;7537;48.014;11.590;2023-08-21T12:35:52;3.66;;;3.76;;
14890;SDS011;7537;48.014;11.590;2023-08-21T12:41:19;4.26;;;3.94;;
14890;SDS011;7537;48.014;11.590;2023-08-21T12:46:47;4.63;;;5.06;;
14890;SDS011;7537;48.014;11.590;2023-08-21T12:52:18;6.45;;;3.88;;
14890;SDS011;7537;48.014;11.590;2023-08-21T12:57:45;4.43;;;3.81;;
14890;SDS011;7537;48.014;11.590;2023-08-21T13:03:12;3.76;;;3.89;;
14890;SDS011;7537;48.014;11.590;2023-08-21T13:08:40;3.85;;;4.03;;
14890;SDS011;7537;48.014;11.590;2023-08-21T13:14:07;4.68;;;3.86;;
14890;SDS011;7537;48.014;11.590;2023-08-21T13:19:34;3.96;;;3.64;;
14890;SDS011;7537;48.014;11.590;2023-08-21T13:25:02;3.73;;;3.80;;
14890;SDS011;7537;48.014;11.590;2023-08-21T13:30:30;6.25;;;4.44;;
14890;SDS011;7537;48.014;11.590;2023-08-21T13:36:01;3.48;;;3.61;;
14890;SDS011;7537;48.014;11.590;2023-08-21T13:41:29;3.63;;;3.72;;
14890;SDS011;7537;48.014;11.590;2023-08-21T13:46:59;4.19;;;4.25;;
14890;SDS011;7537;48.014;11.590;2023-08-21T13:52:30;6.76;;;4.14;;
14890;SDS011;7537;48.014;11.590;2023-08-21T13:57:58;4.31;;;3.34;;
14890;SDS011;7537;48.014;11.590;2023-08-21T14:03:26;5.54;;;4.00;;
14890;SDS011;7537;48.014;11.590;2023-08-21T14:08:53;3.92;;;3.83;;
14890;SDS011;7537;48.014;11.590;2023-08-21T14:14:21;6.65;;;4.49;;
14890;SDS011;7537;48.014;11.590;2023-08-21T14:19:48;3.32;;;3.41;;
14890;SDS011;7537;48.014;11.590;2023-08-21T14:25:16;3.63;;;3.76;;
14890;SDS011;7537;48.014;11.590;2023-08-21T14:30:43;5.54;;;4.41;;
14890;SDS011;7537;48.014;11.590;2023-08-21T14:36:11;5.57;;;3.99;;
14890;SDS011;7537;48.014;11.590;2023-08-21T14:41:43;4.46;;;4.34;;
14890;SDS011;7537;48.014;11.590;2023-08-21T14:47:10;4.86;;;4.81;;
14890;SDS011;7537;48.014;11.590;2023-08-21T14:52:41;3.18;;;3.36;;
14890;SDS011;7537;48.014;11.590;2023-08-21T14:58:08;5.70;;;3.70;;
14890;SDS011;7537;48.014;11.590;2023-08-21T15:03:39;4.09;;;3.56;;
14890;SDS011;7537;48.014;11.590;2023-08-21T15:09:06;4.29;;;4.23;;
14890;SDS011;7537;48.014;11.590;2023-08-21T15:14:34;3.52;;;3.61;;
14890;SDS011;7537;48.014;11.590;2023-08-21T15:20:01;3.69;;;3.83;;
14890;SDS011;7537;48.014;11.590;2023-08-21T15:25:31;3.91;;;4.01;;
14890;SDS011;7537;48.014;11.590;2023-08-21T15:30:58;4.84;;;4.51;;
14890;SDS011;7537;48.014;11.590;2023-08-21T15:36:26;4.78;;;4.52;;
14890;SDS011;7537;48.014;11.590;2023-08-21T15:41:53;4.84;;;3.91;;
14890;SDS011;7537;48.014;11.590;2023-08-21T15:47:20;4.87;;;3.76;;
14890;SDS011;7537;48.014;11.590;2023-08-21T15:52:56;4.82;;;4.07;;
14890;SDS011;7537;48.014;11.590;2023-08-21T15:58:23;4.38;;;3.86;;
14890;SDS011;7537;48.014;11.590;2023-08-21T16:03:51;3.68;;;3.84;;
14890;SDS011;7537;48.014;11.590;2023-08-21T16:09:18;4.69;;;3.71;;
14890;SDS011;7537;48.014;11.590;2023-08-21T16:14:48;4.01;;;3.99;;
14890;SDS011;7537;48.014;11.590;2023-08-21T16:20:17;4.76;;;4.65;;
14890;SDS011;7537;48.014;11.590;2023-08-21T16:25:44;5.08;;;4.23;;
14890;SDS011;7537;48.014;11.590;2023-08-21T16:31:14;5.50;;;4.10;;
14890;SDS011;7537;48.014;11.590;2023-08-21T16:36:41;5.31;;;4.41;;
14890;SDS011;7537;48.014;11.590;2023-08-21T16:42:09;4.84;;;4.34;;
14890;SDS011;7537;48.014;11.590;2023-08-21T16:47:45;5.53;;;4.39;;
14890;SDS011;7537;48.014;11.590;2023-08-21T16:53:16;3.71;;;3.84;;
14890;SDS011;7537;48.014;11.590;2023-08-21T16:58:43;7.65;;;3.84;;
14890;SDS011;7537;48.014;11.590;2023-08-21T17:04:11;4.42;;;4.34;;
14890;SDS011;7537;48.014;11.590;2023-08-21T17:09:38;4.36;;;4.44;;
14890;SDS011;7537;48.014;11.590;2023-08-21T17:15:07;3.71;;;3.82;;
14890;SDS011;7537;48.014;11.590;2023-08-21T17:20:34;4.29;;;4.41;;
14890;SDS011;7537;48.014;11.590;2023-08-21T17:26:02;6.12;;;5.29;;
14890;SDS011;7537;48.014;11.590;2023-08-21T17:31:34;6.32;;;5.06;;
14890;SDS011;7537;48.014;11.590;2023-08-21T17:37:01;4.36;;;4.47;;
14890;SDS011;7537;48.014;11.590;2023-08-21T17:42:29;5.55;;;4.25;;
14890;SDS011;7537;48.014;11.590;2023-08-21T17:47:56;4.99;;;4.30;;
14890;SDS011;7537;48.014;11.590;2023-08-21T17:53:32;6.17;;;4.89;;
14890;SDS011;7537;48.014;11.590;2023-08-21T17:58:59;6.93;;;4.89;;
14890;SDS011;7537;48.014;11.590;2023-08-21T18:04:28;5.71;;;4.81;;
14890;SDS011;7537;48.014;11.590;2023-08-21T18:09:55;10.18;;;5.05;;
14890;SDS011;7537;48.014;11.590;2023-08-21T18:15:22;4.08;;;3.87;;
14890;SDS011;7537;48.014;11.590;2023-08-21T18:20:54;4.64;;;4.82;;
14890;SDS011;7537;48.014;11.590;2023-08-21T18:26:21;4.86;;;4.89;;
14890;SDS011;7537;48.014;11.590;2023-08-21T18:31:49;5.03;;;4.91;;
14890;SDS011;7537;48.014;11.590;2023-08-21T18:37:17;7.28;;;4.71;;
14890;SDS011;7537;48.014;11.590;2023-08-21T18:42:44;4.74;;;4.51;;
14890;SDS011;7537;48.014;11.590;2023-08-21T18:48:12;4.03;;;4.15;;
14890;SDS011;7537;48.014;11.590;2023-08-21T18:53:44;5.19;;;4.93;;
14890;SDS011;7537;48.014;11.590;2023-08-21T18:59:11;4.29;;;4.44;;
14890;SDS011;7537;48.014;11.590;2023-08-21T19:04:39;4.87;;;4.58;;
14890;SDS011;7537;48.014;11.590;2023-08-21T19:10:07;5.01;;;5.10;;
14890;SDS011;7537;48.014;11.590;2023-08-21T19:15:37;8.14;;;5.74;;
14890;SDS011;7537;48.014;11.590;2023-08-21T19:21:04;6.40;;;5.86;;
14890;SDS011;7537;48.014;11.590;2023-08-21T19:26:34;6.84;;;5.66;;
14890;SDS011;7537;48.014;11.590;2023-08-21T19:32:05;5.51;;;5.62;;
14890;SDS011;7537;48.014;11.590;2023-08-21T19:37:33;5.43;;;5.47;;
14890;SDS011;7537;48.014;11.590;2023-08-21T19:43:01;6.56;;;5.58;;
14890;SDS011;7537;48.014;11.590;2023-08-21T19:48:29;5.71;;;5.53;;
14890;SDS011;7537;48.014;11.590;2023-08-21T19:54:07;5.31;;;5.49;;
14890;SDS011;7537;48.014;11.590;2023-08-21T19:59:35;5.42;;;5.53;;
14890;SDS011;7537;48.014;11.590;2023-08-21T20:05:03;7.61;;;5.48;;
14890;SDS011;7537;48.014;11.590;2023-08-21T20:10:31;6.01;;;5.36;;
14890;SDS011;7537;48.014;11.590;2023-08-21T20:15:58;6.06;;;6.06;;
14890;SDS011;7537;48.014;11.590;2023-08-21T20:21:26;6.87;;;5.56;;
14890;SDS011;7537;48.014;11.590;2023-08-21T20:26:53;5.99;;;5.41;;
14890;SDS011;7537;48.014;11.590;2023-08-21T20:32:21;6.04;;;5.37;;
14890;SDS011;7537;48.014;11.590;2023-08-21T20:37:48;8.04;;;5.09;;
14890;SDS011;7537;48.014;11.590;2023-08-21T20:43:18;6.28;;;6.33;;
14890;SDS011;7537;48.014;11.590;2023-08-21T20:48:45;6.53;;;6.04;;
14890;SDS011;7537;48.014;11.590;2023-08-21T20:54:16;5.56;;;5.54;;
14890;SDS011;7537;48.014;11.590;2023-08-21T20:59:44;5.34;;;5.53;;
14890;SDS011;7537;48.014;11.590;2023-08-21T21:05:11;7.16;;;6.13;;
14890;SDS011;7537;48.014;11.590;2023-08-21T21:10:38;9.38;;;7.00;;
14890;SDS011;7537;48.014;11.590;2023-08-21T21:16:06;6.57;;;6.36;;
14890;SDS011;7537;48.014;11.590;2023-08-21T21:21:35;5.99;;;5.56;;
14890;SDS011;7537;48.014;11.590;2023-08-21T21:27:03;7.29;;;6.25;;
14890;SDS011;7537;48.014;11.590;2023-08-21T21:32:30;6.59;;;6.59;;
14890;SDS011;7537;48.014;11.590;2023-08-21T21:38:00;7.39;;;6.13;;
14890;SDS011;7537;48.014;11.590;2023-08-21T21:43:28;6.91;;;6.05;;
14890;SDS011;7537;48.014;11.590;2023-08-21T21:48:56;7.21;;;7.20;;
14890;SDS011;7537;48.014;11.590;2023-08-21T21:54:29;6.23;;;6.43;;
14890;SDS011;7537;48.014;11.590;2023-08-21T21:59:56;9.86;;;6.44;;
14890;SDS011;7537;48.014;11.590;2023-08-21T22:05:24;10.95;;;6.10;;
14890;SDS011;7537;48.014;11.590;2023-08-21T22:10:51;5.99;;;6.06;;
14890;SDS011;7537;48.014;11.590;2023-08-21T22:16:18;8.65;;;6.22;;
14890;SDS011;7537;48.014;11.590;2023-08-21T22:21:46;7.26;;;6.13;;
14890;SDS011;7537;48.014;11.590;2023-08-21T22:27:13;6.48;;;6.29;;
14890;SDS011;7537;48.014;11.590;2023-08-21T22:32:40;6.12;;;6.25;;
14890;SDS011;7537;48.014;11.590;2023-08-21T22:38:08;7.74;;;7.39;;
14890;SDS011;7537;48.014;11.590;2023-08-21T22:43:35;10.62;;;7.03;;
14890;SDS011;7537;48.014;11.590;2023-08-21T22:49:03;6.82;;;6.36;;
14890;SDS011;7537;48.014;11.590;2023-08-21T22:54:33;5.92;;;5.95;;
14890;SDS011;7537;48.014;11.590;2023-08-21T23:00:01;6.77;;;6.82;;
14890;SDS011;7537;48.014;11.590;2023-08-21T23:05:29;6.60;;;6.51;;
14890;SDS011;7537;48.014;11.590;2023-08-21T23:10:56;8.44;;;6.89;;
14890;SDS011;7537;48.014;11.590;2023-08-21T23:16:24;6.90;;;6.89;;
14890;SDS011;7537;48.014;11.590;2023-08-21T23:21:51;7.15;;;6.88;;
14890;SDS011;7537;48.014;11.590;2023-08-21T23:27:18;7.75;;;6.03;;
14890;SDS011;7537;48.014;11.590;2023-08-21T23:32:46;7.81;;;6.74;;
14890;SDS011;7537;48.014;11.590;2023-08-21T23:38:13;6.84;;;6.68;;
14890;SDS011;7537;48.014;11.590;2023-08-21T23:43:45;6.19;;;6.08;;
14890;SDS011;7537;48.014;11.590;2023-08-21T23:49:12;6.72;;;6.77;;
14890;SDS011;7537;48.014;11.590;2023-08-21T23:54:43;6.57;;;6.61;;
